Time;durP1;ratioP1;P1;durP2;ratioP2;P2;SDS_P1;SDS_P2;PMS_P1;PMS_P2;Temp;Humidity;BMP_temperature;BMP_pressure;BME280_temperature;BME280_humidity;BME280_pressure;Samples;Min_cycle;Max_cycle;Signal;HPM_P1;HPM_P2
2023/08/01 14:01:15;;;;;;;;;;;;;;;34.81;25.30;98398.75;4454830;31;33187;-76
2023/08/01 14:03:44;;;;;;;;;;;;;;;34.52;25.74;98398.06;4422263;32;27015;-79
2023/08/01 14:06:15;;;;;;;;;;;;;;;34.02;25.72;98396.72;4452101;32;33464;-77
2023/08/01 14:08:52;;;;;;;;;;;;;;;34.02;26.76;98394.00;4454943;32;33546;-77
2023/08/01 14:11:21;;;;;;;;;;;;;;;33.87;26.95;98395.00;4457763;32;32494;-77
2023/08/01 14:13:53;;;;;;;;;;;;;;;33.98;25.28;98386.34;4461027;32;34686;-77
2023/08/01 14:16:24;;;;;;;;;;;;;;;33.95;27.24;98391.28;4455839;32;33563;-79
2023/08/01 14:18:54;;;;;;;;;;;;;;;33.72;24.68;98381.72;4454308;32;34077;-77
2023/08/01 14:21:22;;;;;;;;;;;;;;;33.39;25.02;98370.78;4456620;32;33680;-78
2023/08/01 14:23:57;;;;;;;;;;;;;;;33.23;24.78;98371.13;4463375;32;33732;-79
2023/08/01 14:26:26;;;;;;;;;;;;;;;33.07;25.74;98362.31;4464630;32;34064;-77
2023/08/01 14:28:56;;;;;;;;;;;;;;;33.10;24.84;98366.47;4457569;32;34063;-77
2023/08/01 14:31:25;;;;;;;;;;;;;;;33.17;26.24;98361.97;4453956;32;32786;-76
2023/08/01 14:33:59;;;;;;;;;;;;;;;33.42;25.66;98359.66;4464100;32;33494;-80
2023/08/01 14:36:28;;;;;;;;;;;;;;;33.62;25.75;98361.63;4467053;32;33912;-77
2023/08/01 14:38:59;;;;;;;;;;;;;;;33.71;24.83;98355.03;4455579;32;34207;-76
2023/08/01 14:41:41;;;;;;;;;;;;;;;33.80;24.51;98356.50;4457620;32;33539;-78
2023/08/01 14:44:12;;;;;;;;;;;;;;;33.74;24.47;98350.06;4456392;32;33916;-76
2023/08/01 14:46:42;;;;;;;;;;;;;;;33.64;25.13;98343.44;4466024;32;33922;-77
2023/08/01 14:49:11;;;;;;;;;;;;;;;33.61;25.60;98341.97;4462523;32;33945;-80
2023/08/01 14:51:45;;;;;;;;;;;;;;;33.36;26.48;98339.75;4459583;32;33314;-77
2023/08/01 14:54:14;;;;;;;;;;;;;;;33.43;26.17;98338.97;4460141;32;34144;-77
2023/08/01 14:56:52;;;;;;;;;;;;;;;33.19;26.46;98335.72;4455650;32;34011;-77
2023/08/01 14:59:21;;;;;;;;;;;;;;;32.86;27.26;98332.81;4462602;32;33543;-76
2023/08/01 15:01:54;;;;;;;;;;;;;;;32.80;27.55;98322.88;4455367;32;33871;-80
2023/08/01 15:04:23;;;;;;;;;;;;;;;32.72;27.75;98334.59;4459175;32;34361;-78
2023/08/01 15:06:58;;;;;;;;;;;;;;;32.77;28.11;98339.37;4456136;32;33947;-78
2023/08/01 15:09:30;;;;;;;;;;;;;;;32.50;28.00;98334.63;4459595;32;34447;-79
2023/08/01 15:11:58;;;;;;;;;;;;;;;32.33;28.55;98337.72;4461763;32;32755;-76
2023/08/01 15:14:28;;;;;;;;;;;;;;;32.25;28.16;98331.47;4460711;32;34220;-78
2023/08/01 15:17:01;;;;;;;;;;;;;;;32.09;28.53;98334.44;4452050;32;34242;-78
2023/08/01 15:19:30;;;;;;;;;;;;;;;32.03;28.58;98337.88;4457584;32;34504;-77
2023/08/01 15:22:00;;;;;;;;;;;;;;;32.07;28.55;98331.94;4464362;32;33760;-77
2023/08/01 15:24:37;;;;;;;;;;;;;;;31.94;29.38;98334.44;4455087;32;34612;-76
2023/08/01 15:27:06;;;;;;;;;;;;;;;32.07;29.31;98334.63;4455214;32;34337;-77
2023/08/01 15:29:35;;;;;;;;;;;;;;;31.63;29.45;98340.06;4455212;32;34388;-78
2023/08/01 15:32:06;;;;;;;;;;;;;;;31.52;30.24;98333.34;4453126;32;33955;-76
2023/08/01 15:34:41;;;;;;;;;;;;;;;31.08;30.58;98344.91;4461632;32;35149;-77
2023/08/01 15:37:09;;;;;;;;;;;;;;;30.51;32.99;98370.34;4459573;32;35068;-77
2023/08/01 15:39:41;;;;;;;;;;;;;;;29.26;36.88;98369.50;4457005;32;34139;-75
2023/08/01 15:42:10;;;;;;;;;;;;;;;27.86;40.12;98369.50;4456576;32;34608;-76
2023/08/01 15:44:40;;;;;;;;;;;;;;;26.93;42.42;98381.81;4456802;32;32806;-77
2023/08/01 15:47:10;;;;;;;;;;;;;;;26.51;42.97;98390.47;4456022;32;33507;-76
2023/08/01 15:49:39;;;;;;;;;;;;;;;26.01;43.82;98406.94;4451499;32;34092;-76
2023/08/01 15:52:11;;;;;;;;;;;;;;;25.45;45.04;98396.28;4454258;32;34106;-76
2023/08/01 15:54:41;;;;;;;;;;;;;;;24.88;46.71;98406.06;4460237;32;34506;-78
2023/08/01 15:57:10;;;;;;;;;;;;;;;24.13;48.32;98445.50;4449620;32;33356;-77
2023/08/01 15:59:43;;;;;;;;;;;;;;;23.47;50.44;98443.34;4453568;32;33963;-74
2023/08/01 16:02:15;;;;;;;;;;;;;;;23.02;52.07;98456.84;4452424;32;34430;-77
2023/08/01 16:04:45;;;;;;;;;;;;;;;22.44;54.04;98488.91;4459941;32;33593;-75
2023/08/01 16:07:15;;;;;;;;;;;;;;;22.07;55.73;98467.25;4452231;32;34855;-77
2023/08/01 16:09:47;;;;;;;;;;;;;;;21.80;57.10;98462.37;4459904;32;34981;-76
2023/08/01 16:12:17;;;;;;;;;;;;;;;21.94;57.29;98481.44;4455328;32;32608;-77
2023/08/01 16:15:00;;;;;;;;;;;;;;;21.65;58.14;98489.00;4459400;32;35607;-77
2023/08/01 16:17:39;;;;;;;;;;;;;;;21.42;58.89;98497.88;4455548;32;34758;-75
2023/08/01 16:20:15;;;;;;;;;;;;;;;21.50;58.75;98504.25;4455264;32;33230;-76
2023/08/01 16:22:46;;;;;;;;;;;;;;;21.43;59.16;98518.00;4458701;32;33262;-75
2023/08/01 16:25:23;;;;;;;;;;;;;;;21.20;60.12;98533.75;4455642;32;33870;-75
2023/08/01 16:27:55;;;;;;;;;;;;;;;20.52;62.93;98534.41;4454644;32;33678;-76
2023/08/01 16:30:25;;;;;;;;;;;;;;;20.48;63.86;98530.31;4450506;32;33435;-75
2023/08/01 16:33:01;;;;;;;;;;;;;;;20.37;64.13;98517.88;4456346;32;32748;-75
2023/08/01 16:35:31;;;;;;;;;;;;;;;20.39;63.92;98524.75;4456455;32;31768;-75
2023/08/01 16:38:08;;;;;;;;;;;;;;;20.28;64.23;98537.00;4453999;32;35157;-77
2023/08/01 16:40:41;;;;;;;;;;;;;;;20.00;65.19;98538.94;4453878;32;34640;-75
2023/08/01 16:43:11;;;;;;;;;;;;;;;19.76;66.10;98533.59;4452505;32;33165;-76
2023/08/01 16:45:45;;;;;;;;;;;;;;;19.77;66.62;98523.00;4459456;32;34711;-76
2023/08/01 16:48:16;;;;;;;;;;;;;;;19.51;67.81;98518.66;4459683;32;34396;-76
2023/08/01 16:50:46;;;;;;;;;;;;;;;19.65;68.64;98499.28;4453231;32;35849;-74
2023/08/01 16:53:15;;;;;;;;;;;;;;;19.52;70.04;98505.41;4450638;32;33000;-78
2023/08/01 16:55:46;;;;;;;;;;;;;;;19.08;72.57;98519.75;4451752;32;34501;-74
2023/08/01 16:58:16;;;;;;;;;;;;;;;18.84;74.26;98516.13;4456699;32;34892;-75
2023/08/01 17:00:47;;;;;;;;;;;;;;;18.68;75.17;98535.50;4453805;32;34813;-77
2023/08/01 17:03:17;;;;;;;;;;;;;;;18.62;76.92;98527.19;4454590;32;33036;-75
2023/08/01 17:05:49;;;;;;;;;;;;;;;18.81;76.75;98532.09;4451759;32;32436;-74
2023/08/01 17:08:19;;;;;;;;;;;;;;;18.83;77.45;98540.75;4456046;32;34484;-73
2023/08/01 17:10:51;;;;;;;;;;;;;;;18.85;77.60;98525.72;4460411;32;33142;-75
2023/08/01 17:13:21;;;;;;;;;;;;;;;18.60;79.82;98521.16;4450149;32;34029;-78
2023/08/01 17:15:53;;;;;;;;;;;;;;;18.81;79.26;98532.09;4455197;32;32474;-74
2023/08/01 17:18:24;;;;;;;;;;;;;;;18.98;78.60;98529.22;4452434;32;34402;-77
2023/08/01 17:21:00;;;;;;;;;;;;;;;19.04;77.45;98522.69;4458703;32;34584;-74
2023/08/01 17:23:39;;;;;;;;;;;;;;;18.81;77.64;98508.47;4453470;32;32448;-74
2023/08/01 17:26:08;;;;;;;;;;;;;;;18.75;78.87;98509.69;4454931;32;35514;-74
2023/08/01 17:28:48;;;;;;;;;;;;;;;18.68;80.82;98514.50;4453068;32;33642;-74
2023/08/01 17:31:25;;;;;;;;;;;;;;;18.41;82.10;98527.63;4451426;32;34774;-74
2023/08/01 17:34:08;;;;;;;;;;;;;;;18.65;80.79;98535.72;4460517;32;34006;-76
2023/08/01 17:36:44;;;;;;;;;;;;;;;18.37;82.98;98536.63;4457374;32;33753;-74
2023/08/01 17:39:13;;;;;;;;;;;;;;;18.46;82.21;98543.06;4451547;32;35348;-76
2023/08/01 17:41:45;;;;;;;;;;;;;;;18.47;82.90;98536.88;4450514;32;34151;-76
2023/08/01 17:44:15;;;;;;;;;;;;;;;18.29;84.45;98523.13;4455086;32;32885;-77
2023/08/01 17:46:49;;;;;;;;;;;;;;;18.46;82.71;98529.94;4456629;32;33641;-74
2023/08/01 17:49:20;;;;;;;;;;;;;;;18.50;82.29;98526.19;4459539;32;32582;-75
2023/08/01 17:51:52;;;;;;;;;;;;;;;18.60;83.01;98537.78;4451155;32;36043;-75
2023/08/01 17:54:29;;;;;;;;;;;;;;;18.66;81.53;98534.75;4453599;32;34217;-75
2023/08/01 17:56:59;;;;;;;;;;;;;;;18.73;81.12;98536.06;4454299;32;32773;-75
2023/08/01 17:59:32;;;;;;;;;;;;;;;18.73;81.31;98540.47;4462313;32;34061;-76
2023/08/01 18:02:01;;;;;;;;;;;;;;;18.42;82.41;98546.84;4454785;32;33554;-76
2023/08/01 18:04:37;;;;;;;;;;;;;;;18.14;84.86;98545.94;4456391;32;34137;-75
2023/08/01 18:07:06;;;;;;;;;;;;;;;18.30;85.49;98551.09;4453390;32;35611;-76
2023/08/01 18:09:43;;;;;;;;;;;;;;;18.32;83.75;98557.94;4454210;32;32871;-76
2023/08/01 18:12:16;;;;;;;;;;;;;;;18.40;82.88;98564.47;4459998;32;33245;-77
2023/08/01 18:14:46;;;;;;;;;;;;;;;18.21;84.78;98583.16;4456418;32;33952;-78
2023/08/01 18:17:20;;;;;;;;;;;;;;;18.43;83.93;98590.53;4455709;32;33612;-79
2023/08/01 18:19:51;;;;;;;;;;;;;;;18.66;81.96;98583.84;4452511;32;34811;-79
2023/08/01 18:22:29;;;;;;;;;;;;;;;18.68;81.56;98567.03;4454926;32;33857;-78
2023/08/01 18:25:03;;;;;;;;;;;;;;;18.69;81.43;98571.34;4459720;32;33137;-80
2023/08/01 18:27:35;;;;;;;;;;;;;;;18.62;81.57;98575.28;4457828;32;32113;-81
2023/08/01 18:30:11;;;;;;;;;;;;;;;18.52;81.58;98590.78;4449577;32;35078;-78
2023/08/01 18:32:43;;;;;;;;;;;;;;;18.07;85.32;98599.75;4451046;32;33840;-77
2023/08/01 18:35:16;;;;;;;;;;;;;;;18.17;85.64;98600.03;4454994;32;33144;-79
2023/08/01 18:37:46;;;;;;;;;;;;;;;18.41;84.75;98605.53;4462326;32;34133;-78
2023/08/01 18:40:16;;;;;;;;;;;;;;;18.22;86.16;98606.69;4453057;32;33577;-77
2023/08/01 18:42:48;;;;;;;;;;;;;;;18.19;86.63;98606.03;4452579;32;33560;-79
2023/08/01 18:45:18;;;;;;;;;;;;;;;18.23;85.90;98602.28;4455485;32;32680;-77
2023/08/01 18:47:50;;;;;;;;;;;;;;;18.05;86.83;98606.87;4457592;32;33256;-77
2023/08/01 18:50:21;;;;;;;;;;;;;;;18.07;87.51;98620.75;4458462;32;34965;-78
2023/08/01 18:52:55;;;;;;;;;;;;;;;18.28;86.25;98621.22;4450158;32;35165;-78
2023/08/01 18:55:25;;;;;;;;;;;;;;;18.33;85.80;98622.63;4453377;32;32435;-77
2023/08/01 18:57:59;;;;;;;;;;;;;;;18.55;84.94;98619.47;4455706;32;34401;-81
2023/08/01 19:00:37;;;;;;;;;;;;;;;18.82;83.33;98636.25;4458998;32;34125;-78
2023/08/01 19:03:08;;;;;;;;;;;;;;;18.54;84.38;98645.88;4453669;32;33860;-78
2023/08/01 19:05:46;;;;;;;;;;;;;;;18.68;82.82;98635.34;4458543;32;33117;-78
2023/08/01 19:08:20;;;;;;;;;;;;;;;18.44;84.28;98644.75;4453231;32;33858;-77
2023/08/01 19:10:51;;;;;;;;;;;;;;;18.65;84.54;98637.28;4451058;32;34465;-80
2023/08/01 19:13:20;;;;;;;;;;;;;;;18.64;84.03;98633.00;4457584;32;34272;-79
2023/08/01 19:15:49;;;;;;;;;;;;;;;18.65;84.23;98624.16;4455487;32;31936;-78
2023/08/01 19:18:18;;;;;;;;;;;;;;;18.54;84.28;98606.47;4455363;32;33961;-80
2023/08/01 19:20:50;;;;;;;;;;;;;;;18.33;86.58;98593.72;4453750;32;34468;-77
2023/08/01 19:23:23;;;;;;;;;;;;;;;18.79;83.02;98582.13;4454262;32;33886;-80
2023/08/01 19:25:53;;;;;;;;;;;;;;;18.69;85.12;98594.12;4457218;32;32888;-78
2023/08/01 19:28:24;;;;;;;;;;;;;;;19.12;82.93;98600.13;4453916;32;33510;-78
2023/08/01 19:30:54;;;;;;;;;;;;;;;19.31;80.71;98598.91;4452846;32;34036;-80
2023/08/01 19:33:30;;;;;;;;;;;;;;;19.56;77.69;98598.09;4453926;32;34008;-79
2023/08/01 19:36:08;;;;;;;;;;;;;;;19.25;79.95;98601.94;4459959;32;32023;-79
2023/08/01 19:38:38;;;;;;;;;;;;;;;19.24;81.06;98597.63;4461483;32;33123;-81
2023/08/01 19:41:10;;;;;;;;;;;;;;;19.40;79.56;98600.91;4453861;32;33773;-79
2023/08/01 19:43:39;;;;;;;;;;;;;;;19.54;80.21;98600.00;4453359;32;33856;-78
2023/08/01 19:46:14;;;;;;;;;;;;;;;19.75;78.98;98605.63;4453502;32;32739;-80
2023/08/01 19:48:45;;;;;;;;;;;;;;;19.95;77.67;98605.09;4456867;32;34015;-81
2023/08/01 19:51:23;;;;;;;;;;;;;;;20.04;77.23;98606.25;4453724;32;35165;-78
2023/08/01 19:54:05;;;;;;;;;;;;;;;20.31;75.79;98613.16;4453540;32;33739;-81
2023/08/01 19:56:37;;;;;;;;;;;;;;;20.03;77.69;98617.75;4455350;32;32846;-83
2023/08/01 19:59:10;;;;;;;;;;;;;;;20.15;77.48;98621.28;4451606;32;34510;-78
2023/08/01 20:01:43;;;;;;;;;;;;;;;20.13;77.40;98625.84;4460084;32;33525;-80
2023/08/01 20:04:23;;;;;;;;;;;;;;;20.49;73.73;98627.69;4452242;32;35265;-80
2023/08/01 20:07:03;;;;;;;;;;;;;;;20.30;74.60;98617.59;4457512;32;32947;-78
2023/08/01 20:09:32;;;;;;;;;;;;;;;20.16;75.20;98615.91;4451308;32;32468;-83
2023/08/01 20:12:03;;;;;;;;;;;;;;;20.14;75.49;98607.28;4451519;32;34061;-78
2023/08/01 20:14:35;;;;;;;;;;;;;;;20.21;75.13;98600.63;4457396;32;33361;-83
2023/08/01 20:17:05;;;;;;;;;;;;;;;20.06;75.07;98590.34;4454692;32;32872;-78
2023/08/01 20:19:39;;;;;;;;;;;;;;;20.05;75.82;98584.22;4452411;32;34099;-84
2023/08/01 20:22:17;;;;;;;;;;;;;;;20.03;76.48;98568.56;4454174;32;33704;-80
2023/08/01 20:24:47;;;;;;;;;;;;;;;20.13;77.14;98557.38;4456101;32;34341;-83
2023/08/01 20:27:16;;;;;;;;;;;;;;;20.48;75.34;98552.22;4456906;32;32460;-81
2023/08/01 20:29:48;;;;;;;;;;;;;;;20.68;73.87;98574.50;4455463;32;33870;-84
2023/08/01 20:32:19;;;;;;;;;;;;;;;20.68;72.67;98579.78;4451165;32;33876;-79
2023/08/01 20:34:52;;;;;;;;;;;;;;;20.31;73.89;98558.69;4457679;32;33697;-79
2023/08/01 20:37:23;;;;;;;;;;;;;;;20.25;74.13;98531.00;4453129;32;32699;-79
2023/08/01 20:39:53;;;;;;;;;;;;;;;20.08;75.62;98501.53;4457440;32;33732;-79
2023/08/01 20:42:25;;;;;;;;;;;;;;;20.07;76.74;98515.69;4452312;32;34017;-80
2023/08/01 20:45:02;;;;;;;;;;;;;;;20.42;75.19;98532.44;4457081;32;33814;-81
2023/08/01 20:47:38;;;;;;;;;;;;;;;20.70;72.37;98533.06;4453623;32;32705;-80
2023/08/01 20:50:08;;;;;;;;;;;;;;;20.42;73.47;98518.44;4454284;32;34168;-81
2023/08/01 20:52:40;;;;;;;;;;;;;;;20.22;74.61;98514.56;4461432;32;34210;-82
2023/08/01 20:55:10;;;;;;;;;;;;;;;20.19;75.04;98513.00;4456872;32;34551;-79
2023/08/01 20:57:39;;;;;;;;;;;;;;;20.33;74.07;98554.16;4455066;32;34237;-80
2023/08/01 21:00:09;;;;;;;;;;;;;;;20.04;75.26;98566.75;4457336;32;33853;-80
2023/08/01 21:02:38;;;;;;;;;;;;;;;19.79;76.74;98583.41;4462679;32;34455;-81
2023/08/01 21:05:09;;;;;;;;;;;;;;;19.82;75.99;98585.84;4455043;32;32801;-82
2023/08/01 21:07:41;;;;;;;;;;;;;;;19.38;78.44;98610.72;4454772;32;33152;-81
2023/08/01 21:10:10;;;;;;;;;;;;;;;19.03;80.58;98582.31;4451873;32;34089;-81
2023/08/01 21:12:40;;;;;;;;;;;;;;;18.75;82.51;98573.56;4453902;32;33988;-82
2023/08/01 21:15:09;;;;;;;;;;;;;;;19.00;81.82;98577.25;4458017;32;33830;-82
2023/08/01 21:17:37;;;;;;;;;;;;;;;19.22;79.96;98579.31;4452132;32;34158;-81
2023/08/01 21:20:16;;;;;;;;;;;;;;;19.07;81.35;98617.97;4449051;32;33746;-81
2023/08/01 21:22:46;;;;;;;;;;;;;;;19.00;82.09;98639.50;4454925;32;35082;-80
2023/08/01 21:25:15;;;;;;;;;;;;;;;18.74;82.63;98631.47;4459982;32;33630;-81
2023/08/01 21:27:48;;;;;;;;;;;;;;;18.87;82.26;98637.69;4454274;32;32946;-80
2023/08/01 21:30:17;;;;;;;;;;;;;;;18.57;83.57;98618.56;4449520;32;34727;-82
2023/08/01 21:32:46;;;;;;;;;;;;;;;18.90;81.90;98597.22;4448703;32;34289;-81
2023/08/01 21:35:16;;;;;;;;;;;;;;;18.43;84.44;98614.16;4454118;32;33906;-81
2023/08/01 21:37:50;;;;;;;;;;;;;;;18.68;84.29;98613.47;4460253;32;34853;-82
2023/08/01 21:40:18;;;;;;;;;;;;;;;18.72;83.40;98641.22;4447414;32;33774;-80
2023/08/01 21:42:54;;;;;;;;;;;;;;;18.85;82.77;98641.34;4453551;32;33490;-82
2023/08/01 21:45:24;;;;;;;;;;;;;;;19.10;82.25;98654.56;4454169;32;35025;-82
2023/08/01 21:47:53;;;;;;;;;;;;;;;19.05;81.38;98675.06;4455387;32;34566;-80
2023/08/01 21:50:24;;;;;;;;;;;;;;;19.24;81.00;98697.53;4452359;32;34549;-82
2023/08/01 21:52:57;;;;;;;;;;;;;;;19.31;79.82;98717.25;4452410;32;34619;-80
2023/08/01 21:55:25;;;;;;;;;;;;;;;19.28;80.66;98725.31;4453719;32;33083;-82
2023/08/01 21:57:54;;;;;;;;;;;;;;;19.43;80.25;98737.50;4453693;32;33942;-82
2023/08/01 22:00:23;;;;;;;;;;;;;;;19.58;79.62;98725.97;4459118;32;33948;-82
2023/08/01 22:03:00;;;;;;;;;;;;;;;19.45;79.25;98718.97;4452343;32;34672;-80
2023/08/01 22:05:28;;;;;;;;;;;;;;;19.53;79.77;98709.62;4451835;32;33231;-82
2023/08/01 22:08:00;;;;;;;;;;;;;;;20.04;75.76;98712.41;4451177;32;33051;-84
2023/08/01 22:10:32;;;;;;;;;;;;;;;19.81;75.20;98700.81;4453594;32;32870;-82
2023/08/01 22:13:04;;;;;;;;;;;;;;;19.56;77.37;98706.78;4456376;32;34786;-80
2023/08/01 22:15:32;;;;;;;;;;;;;;;19.70;76.24;98698.03;4452751;32;34111;-83
2023/08/01 22:18:02;;;;;;;;;;;;;;;19.62;76.38;98681.87;4452352;32;33382;-82
2023/08/01 22:20:30;;;;;;;;;;;;;;;19.61;76.15;98667.87;4454945;32;34179;-82
2023/08/01 22:23:05;;;;;;;;;;;;;;;19.64;76.03;98663.34;4463109;32;34246;-84
2023/08/01 22:25:35;;;;;;;;;;;;;;;19.69;75.40;98669.19;4456108;32;34421;-80
2023/08/01 22:28:05;;;;;;;;;;;;;;;19.45;76.54;98664.59;4456947;32;33092;-83
2023/08/01 22:30:34;;;;;;;;;;;;;;;19.48;76.75;98664.38;4453003;32;33229;-84
2023/08/01 22:33:03;;;;;;;;;;;;;;;19.22;77.56;98657.34;4455069;32;33920;-81
2023/08/01 22:35:32;;;;;;;;;;;;;;;19.16;78.10;98655.94;4459926;32;34273;-81
2023/08/01 22:38:03;;;;;;;;;;;;;;;19.16;78.20;98656.81;4456675;32;33260;-83
2023/08/01 22:40:35;;;;;;;;;;;;;;;19.06;78.77;98653.06;4451178;32;34740;-81
2023/08/01 22:43:09;;;;;;;;;;;;;;;18.96;79.36;98646.72;4455798;32;33691;-83
2023/08/01 22:45:39;;;;;;;;;;;;;;;19.02;78.94;98629.75;4463086;32;34231;-83
2023/08/01 22:48:11;;;;;;;;;;;;;;;19.05;79.74;98630.38;4458650;32;33094;-80
2023/08/01 22:50:39;;;;;;;;;;;;;;;18.93;79.92;98637.25;4457700;32;33452;-81
2023/08/01 22:53:16;;;;;;;;;;;;;;;18.80;81.18;98641.63;4458266;32;33845;-83
2023/08/01 22:55:48;;;;;;;;;;;;;;;18.91;80.38;98652.28;4457393;32;34664;-80
2023/08/01 22:58:20;;;;;;;;;;;;;;;18.75;81.59;98651.56;4462772;32;32733;-80
2023/08/01 23:00:52;;;;;;;;;;;;;;;19.12;79.83;98655.31;4458866;32;34847;-82
2023/08/01 23:03:21;;;;;;;;;;;;;;;18.92;80.73;98645.25;4459756;32;33093;-83
2023/08/01 23:05:51;;;;;;;;;;;;;;;18.96;80.70;98644.94;4460367;32;34774;-81
2023/08/01 23:08:26;;;;;;;;;;;;;;;19.21;78.52;98629.34;4458428;32;35034;-81
2023/08/01 23:10:59;;;;;;;;;;;;;;;19.24;79.11;98642.34;4465532;32;34266;-82
2023/08/01 23:13:27;;;;;;;;;;;;;;;19.08;78.96;98651.19;4459036;32;33936;-83
2023/08/01 23:15:56;;;;;;;;;;;;;;;19.42;77.08;98650.78;4462466;32;34626;-81
2023/08/01 23:18:25;;;;;;;;;;;;;;;19.08;79.13;98655.62;4457236;32;32757;-81
2023/08/01 23:20:56;;;;;;;;;;;;;;;19.30;77.67;98652.44;4464435;32;34765;-82
2023/08/01 23:23:29;;;;;;;;;;;;;;;19.23;77.76;98651.16;4459245;32;33586;-80
2023/08/01 23:26:04;;;;;;;;;;;;;;;19.00;79.26;98660.53;4459598;32;33830;-80
2023/08/01 23:28:34;;;;;;;;;;;;;;;19.15;78.14;98647.22;4459005;32;33365;-84
2023/08/01 23:31:05;;;;;;;;;;;;;;;18.96;79.24;98636.22;4455672;32;32621;-81
2023/08/01 23:33:33;;;;;;;;;;;;;;;19.03;78.73;98649.81;4464641;32;34160;-81
2023/08/01 23:36:04;;;;;;;;;;;;;;;19.22;77.85;98655.56;4458513;32;33544;-82
2023/08/01 23:38:32;;;;;;;;;;;;;;;19.21;77.23;98668.81;4468297;32;33673;-83
2023/08/01 23:41:03;;;;;;;;;;;;;;;19.24;77.98;98679.97;4457910;32;34120;-83
2023/08/01 23:43:34;;;;;;;;;;;;;;;19.43;76.32;98663.84;4462797;32;34163;-83
2023/08/01 23:46:02;;;;;;;;;;;;;;;19.35;77.30;98663.50;4458831;32;34191;-81
2023/08/01 23:48:32;;;;;;;;;;;;;;;19.46;76.80;98670.69;4458130;32;34158;-83
2023/08/01 23:51:00;;;;;;;;;;;;;;;19.44;76.48;98673.41;4457177;32;33956;-83
2023/08/01 23:53:36;;;;;;;;;;;;;;;19.39;76.61;98686.03;4462129;32;34592;-84
2023/08/01 23:56:08;;;;;;;;;;;;;;;19.33;76.82;98707.44;4458313;32;34158;-81
2023/08/01 23:58:38;;;;;;;;;;;;;;;19.62;76.03;98698.50;4457025;32;34420;-82
